Time;durP1;ratioP1;P1;durP2;ratioP2;P2;SDS_P1;SDS_P2;PMS_P1;PMS_P2;Temp;Humidity;BMP_temperature;BMP_pressure;BME280_temperature;BME280_humidity;BME280_pressure;Samples;Min_cycle;Max_cycle;Signal;HPM_P1;HPM_P2
2023/08/17 00:00:28;;;;;;;16.98;12.95;;;17.20;99.90;;;;;;4842241;29;20549;-51
2023/08/17 00:02:55;;;;;;;24.35;13.77;;;17.30;99.90;;;;;;4848681;29;20052;-53
2023/08/17 00:05:22;;;;;;;18.70;12.80;;;17.30;99.90;;;;;;4860008;29;20055;-54
2023/08/17 00:07:49;;;;;;;16.48;12.57;;;17.30;99.90;;;;;;4860031;29;20056;-54
2023/08/17 00:10:15;;;;;;;15.13;11.65;;;17.30;99.90;;;;;;4860210;29;20049;-53
2023/08/17 00:12:42;;;;;;;16.02;12.10;;;17.40;99.90;;;;;;4860490;29;20129;-54
2023/08/17 00:15:09;;;;;;;15.30;12.13;;;17.40;99.90;;;;;;4860402;29;20053;-53
2023/08/17 00:17:36;;;;;;;15.68;12.55;;;17.50;99.90;;;;;;4856314;29;20072;-53
2023/08/17 00:20:05;;;;;;;14.38;11.35;;;17.50;99.90;;;;;;4833130;29;20121;-52
2023/08/17 00:22:31;;;;;;;15.48;11.80;;;17.50;99.90;;;;;;4831190;29;20466;-53
2023/08/17 00:24:58;;;;;;;17.05;11.68;;;17.50;99.90;;;;;;4832973;29;20078;-54
2023/08/17 00:27:25;;;;;;;15.57;11.60;;;17.60;99.90;;;;;;4831800;29;20046;-53
2023/08/17 00:29:52;;;;;;;19.83;11.80;;;17.60;99.90;;;;;;4833276;29;20095;-51
2023/08/17 00:32:19;;;;;;;20.17;11.88;;;17.60;99.90;;;;;;4831862;29;20057;-55
2023/08/17 00:34:46;;;;;;;20.15;12.40;;;17.60;99.90;;;;;;4829547;29;20057;-55
2023/08/17 00:37:13;;;;;;;21.48;13.07;;;17.50;99.90;;;;;;4837172;29;20095;-51
2023/08/17 00:39:40;;;;;;;15.38;11.65;;;17.40;99.90;;;;;;4824600;29;20043;-49
2023/08/17 00:42:07;;;;;;;16.17;11.50;;;17.40;99.90;;;;;;4826089;29;20038;-50
2023/08/17 00:44:34;;;;;;;15.70;11.95;;;17.30;99.90;;;;;;4826498;29;20125;-53
2023/08/17 00:47:02;;;;;;;18.73;11.77;;;17.30;99.90;;;;;;4840257;29;20142;-50
2023/08/17 00:49:29;;;;;;;17.92;12.30;;;17.30;99.90;;;;;;4840274;29;20054;-53
2023/08/17 00:51:55;;;;;;;18.83;12.65;;;17.30;99.90;;;;;;4826349;29;20054;-52
2023/08/17 00:54:22;;;;;;;16.63;12.35;;;17.30;99.90;;;;;;4826054;29;20057;-53
2023/08/17 00:56:49;;;;;;;18.23;12.02;;;17.30;99.90;;;;;;4826314;29;20484;-52
2023/08/17 00:59:16;;;;;;;16.65;11.77;;;17.20;99.90;;;;;;4840062;29;20055;-57
2023/08/17 01:01:43;;;;;;;17.60;12.40;;;17.20;99.90;;;;;;4840480;29;20402;-53
2023/08/17 01:04:11;;;;;;;17.48;13.82;;;17.20;99.90;;;;;;4840323;29;20058;-54
2023/08/17 01:06:38;;;;;;;23.00;12.95;;;17.20;99.90;;;;;;4839812;29;20066;-56
2023/08/17 01:09:05;;;;;;;16.88;13.18;;;17.20;99.90;;;;;;4839725;29;20058;-52
2023/08/17 01:11:32;;;;;;;18.17;13.07;;;17.20;99.90;;;;;;4840025;29;20057;-49
2023/08/17 01:13:59;;;;;;;16.80;11.57;;;17.20;99.90;;;;;;4839558;29;20061;-52
2023/08/17 01:16:26;;;;;;;19.83;12.82;;;17.10;99.90;;;;;;4840221;29;20046;-56
2023/08/17 01:18:52;;;;;;;17.42;11.65;;;17.10;99.90;;;;;;4840070;29;20062;-55
2023/08/17 01:21:19;;;;;;;14.98;12.27;;;17.10;99.90;;;;;;4825786;29;20097;-52
2023/08/17 01:23:46;;;;;;;15.88;12.07;;;17.10;99.90;;;;;;4839730;29;20046;-53
2023/08/17 01:26:15;;;;;;;16.92;12.25;;;17.10;99.90;;;;;;4839777;29;20479;-50
2023/08/17 01:28:42;;;;;;;18.30;12.20;;;17.00;99.90;;;;;;4826105;29;20082;-52
2023/08/17 01:31:09;;;;;;;18.60;13.35;;;17.00;99.90;;;;;;4840006;29;20046;-54
2023/08/17 01:33:36;;;;;;;20.40;12.68;;;17.00;99.90;;;;;;4825861;29;20054;-52
2023/08/17 01:36:03;;;;;;;17.67;12.65;;;17.00;99.90;;;;;;4825323;29;20102;-51
2023/08/17 01:38:30;;;;;;;17.50;11.65;;;17.00;99.90;;;;;;4826129;29;20046;-53
2023/08/17 01:40:57;;;;;;;17.45;12.27;;;17.00;99.90;;;;;;4839830;29;20559;-50
2023/08/17 01:43:23;;;;;;;16.40;11.25;;;16.90;99.90;;;;;;4825743;29;20046;-54
2023/08/17 01:45:50;;;;;;;17.15;12.52;;;16.90;99.90;;;;;;4825297;29;20458;-53
2023/08/17 01:48:17;;;;;;;22.33;12.20;;;17.00;99.90;;;;;;4825681;29;20117;-51
2023/08/17 01:50:44;;;;;;;17.92;11.25;;;16.90;99.90;;;;;;4824683;29;20070;-48
2023/08/17 01:53:11;;;;;;;16.42;11.98;;;17.00;99.90;;;;;;4839248;29;20054;-51
2023/08/17 01:55:38;;;;;;;23.25;11.95;;;16.90;99.90;;;;;;4838981;29;20447;-53
2023/08/17 01:58:06;;;;;;;23.67;12.35;;;17.00;99.90;;;;;;4824702;29;20087;-51
2023/08/17 02:00:33;;;;;;;18.23;11.48;;;17.00;99.90;;;;;;4839447;29;20467;-53
2023/08/17 02:03:00;;;;;;;16.10;11.10;;;17.00;99.90;;;;;;4825729;29;20074;-50
2023/08/17 02:05:29;;;;;;;20.33;11.18;;;17.00;99.90;;;;;;4838988;29;20053;-54
2023/08/17 02:07:56;;;;;;;13.38;10.52;;;17.00;99.90;;;;;;4838626;29;20107;-56
2023/08/17 02:10:22;;;;;;;19.42;10.60;;;17.00;99.90;;;;;;4839007;29;20061;-55
2023/08/17 02:12:49;;;;;;;19.83;10.60;;;17.10;99.90;;;;;;4824960;29;20148;-53
2023/08/17 02:15:22;;;;;;;14.57;10.07;;;17.10;99.90;;;;;;4838855;29;20118;-52
2023/08/17 02:17:48;;;;;;;20.48;10.88;;;17.10;99.90;;;;;;4838946;29;20050;-56
2023/08/17 02:20:15;;;;;;;16.08;9.98;;;17.10;99.90;;;;;;4824859;29;20081;-53
2023/08/17 02:22:42;;;;;;;17.27;9.80;;;17.10;99.90;;;;;;4825161;29;20072;-52
2023/08/17 02:25:09;;;;;;;16.33;9.45;;;17.10;99.90;;;;;;4825206;29;20042;-55
2023/08/17 02:27:36;;;;;;;19.13;9.98;;;17.00;99.90;;;;;;4838907;29;20050;-52
2023/08/17 02:30:03;;;;;;;18.23;9.88;;;17.00;99.90;;;;;;4824818;29;20047;-55
2023/08/17 02:32:30;;;;;;;16.23;9.50;;;17.00;99.90;;;;;;4824988;29;20543;-55
2023/08/17 02:34:57;;;;;;;14.70;8.57;;;17.00;99.90;;;;;;4838878;29;20073;-51
2023/08/17 02:37:23;;;;;;;18.63;9.98;;;17.10;99.90;;;;;;4824743;29;20063;-53
2023/08/17 02:39:51;;;;;;;16.42;9.13;;;17.10;99.90;;;;;;4825178;29;20048;-55
2023/08/17 02:42:18;;;;;;;19.02;9.23;;;17.10;99.90;;;;;;4838387;29;20078;-54
2023/08/17 02:44:44;;;;;;;18.30;9.07;;;17.10;99.90;;;;;;4824970;29;20501;-50
2023/08/17 02:47:11;;;;;;;18.33;9.35;;;17.10;99.90;;;;;;4824801;29;20046;-50
2023/08/17 02:49:38;;;;;;;15.63;8.40;;;17.10;99.90;;;;;;4824821;29;20050;-54
2023/08/17 02:52:05;;;;;;;18.23;8.77;;;17.10;99.90;;;;;;4838456;29;20050;-55
2023/08/17 02:54:31;;;;;;;14.05;8.52;;;17.00;99.90;;;;;;4838807;29;20052;-52
2023/08/17 02:56:58;;;;;;;12.63;8.05;;;17.00;99.90;;;;;;4824497;29;20120;-51
2023/08/17 02:59:25;;;;;;;17.83;8.32;;;17.00;99.90;;;;;;4824270;29;20053;-55
2023/08/17 03:01:52;;;;;;;18.67;7.60;;;17.00;99.90;;;;;;4838267;29;20570;-55
2023/08/17 03:04:19;;;;;;;18.35;7.50;;;17.00;99.90;;;;;;4838161;29;20046;-55
2023/08/17 03:06:46;;;;;;;15.75;7.55;;;17.00;99.90;;;;;;4838249;29;20483;-54
2023/08/17 03:09:12;;;;;;;16.20;7.25;;;17.00;99.90;;;;;;4838470;29;20525;-51
2023/08/17 03:11:39;;;;;;;17.77;7.70;;;17.00;99.90;;;;;;4837944;29;20483;-52
2023/08/17 03:14:06;;;;;;;21.70;7.10;;;17.10;99.90;;;;;;4824212;29;20052;-54
2023/08/17 03:16:33;;;;;;;12.43;7.05;;;17.10;99.90;;;;;;4824308;29;20088;-50
2023/08/17 03:19:00;;;;;;;17.83;6.82;;;17.10;99.90;;;;;;4838568;29;20428;-52
2023/08/17 03:21:26;;;;;;;16.48;6.47;;;17.10;99.90;;;;;;4838304;29;20495;-54
2023/08/17 03:23:53;;;;;;;15.95;6.82;;;17.20;99.90;;;;;;4824464;29;20054;-54
2023/08/17 03:26:20;;;;;;;18.25;6.80;;;17.20;99.90;;;;;;4824329;29;20103;-52
2023/08/17 03:28:47;;;;;;;20.35;6.93;;;17.20;99.90;;;;;;4838307;29;20107;-54
2023/08/17 03:31:14;;;;;;;21.88;6.93;;;17.20;99.90;;;;;;4837713;29;20460;-51
2023/08/17 03:33:41;;;;;;;14.65;6.43;;;17.20;99.90;;;;;;4837906;29;20103;-51
2023/08/17 03:36:08;;;;;;;17.60;6.55;;;17.20;99.90;;;;;;4837698;29;20062;-52
2023/08/17 03:38:35;;;;;;;16.70;7.03;;;17.20;99.90;;;;;;4823562;29;20046;-55
2023/08/17 03:41:04;;;;;;;13.55;6.78;;;17.20;99.90;;;;;;4837752;29;20070;-53
2023/08/17 03:43:30;;;;;;;17.17;6.57;;;17.30;99.90;;;;;;4837765;29;20050;-54
2023/08/17 03:45:58;;;;;;;20.42;7.90;;;17.30;99.90;;;;;;4837825;29;20142;-54
2023/08/17 03:48:25;;;;;;;18.75;6.28;;;17.30;99.90;;;;;;4838239;29;20149;-50
2023/08/17 03:50:52;;;;;;;21.83;7.25;;;17.30;99.90;;;;;;4837594;29;20133;-56
2023/08/17 03:53:19;;;;;;;13.60;6.22;;;17.30;99.90;;;;;;4824022;29;20521;-51
2023/08/17 03:55:46;;;;;;;16.38;6.85;;;17.20;99.90;;;;;;4837576;29;20085;-51
2023/08/17 03:58:13;;;;;;;16.48;6.55;;;17.20;99.90;;;;;;4837351;29;20111;-52
2023/08/17 04:00:40;;;;;;;14.90;6.40;;;17.20;99.90;;;;;;4837622;29;20051;-52
2023/08/17 04:03:07;;;;;;;19.20;6.22;;;17.20;99.90;;;;;;4837734;29;20495;-54
2023/08/17 04:05:34;;;;;;;21.58;6.47;;;17.30;99.90;;;;;;4837391;29;20050;-54
2023/08/17 04:08:02;;;;;;;21.83;6.68;;;17.30;99.90;;;;;;4837830;29;20131;-50
2023/08/17 04:10:29;;;;;;;17.15;6.13;;;17.20;99.90;;;;;;4823806;29;20046;-55
2023/08/17 04:12:56;;;;;;;19.30;5.50;;;17.20;99.90;;;;;;4823800;29;20477;-54
2023/08/17 04:15:22;;;;;;;16.17;6.28;;;17.20;99.90;;;;;;4826026;29;20073;-55
2023/08/17 04:17:49;;;;;;;16.88;6.15;;;17.20;99.90;;;;;;4826856;29;20147;-54
2023/08/17 04:20:18;;;;;;;17.15;5.93;;;17.30;99.90;;;;;;4826580;29;20133;-52
2023/08/17 04:22:44;;;;;;;13.10;5.53;;;17.20;99.90;;;;;;4826846;29;20054;-54
2023/08/17 04:25:11;;;;;;;19.73;5.53;;;17.20;99.90;;;;;;4840632;29;20050;-55
2023/08/17 04:27:38;;;;;;;18.10;5.45;;;17.20;99.90;;;;;;4826775;29;20386;-55
2023/08/17 04:30:05;;;;;;;19.27;5.95;;;17.20;99.90;;;;;;4840703;29;20058;-53
2023/08/17 04:32:41;;;;;;;14.30;5.15;;;17.20;99.90;;;;;;4841202;29;20051;-53
2023/08/17 04:35:09;;;;;;;14.48;5.63;;;17.20;99.90;;;;;;4826272;29;20412;-54
2023/08/17 04:37:36;;;;;;;18.67;5.55;;;17.30;99.90;;;;;;4840745;29;20047;-54
2023/08/17 04:40:03;;;;;;;17.95;5.88;;;17.30;99.90;;;;;;4840606;29;20050;-53
2023/08/17 04:42:31;;;;;;;12.05;4.78;;;17.30;99.90;;;;;;4840930;29;20050;-53
2023/08/17 04:44:58;;;;;;;17.48;6.15;;;17.30;99.90;;;;;;4826458;29;20051;-49
2023/08/17 04:47:24;;;;;;;15.43;5.10;;;17.30;99.90;;;;;;4840809;29;20414;-52
2023/08/17 04:49:51;;;;;;;17.38;5.35;;;17.30;99.90;;;;;;4840496;29;20129;-53
2023/08/17 04:52:18;;;;;;;20.80;5.72;;;17.30;99.90;;;;;;4826388;29;20356;-50
2023/08/17 04:54:45;;;;;;;19.30;5.47;;;17.20;99.90;;;;;;4840630;29;20078;-53
2023/08/17 04:57:12;;;;;;;16.38;5.25;;;17.20;99.90;;;;;;4840618;29;20054;-56
2023/08/17 04:59:39;;;;;;;17.15;6.18;;;17.20;99.90;;;;;;4839858;29;20054;-52
2023/08/17 05:02:06;;;;;;;16.60;4.93;;;17.20;99.90;;;;;;4840086;29;20046;-52
2023/08/17 05:04:33;;;;;;;17.88;5.32;;;17.20;99.90;;;;;;4840107;29;20495;-49
2023/08/17 05:07:00;;;;;;;15.80;5.10;;;17.20;99.90;;;;;;4826133;29;20410;-54
2023/08/17 05:09:27;;;;;;;15.68;5.10;;;17.10;99.90;;;;;;4840326;29;20050;-50
2023/08/17 05:11:54;;;;;;;18.65;5.50;;;17.10;99.90;;;;;;4839980;29;20057;-54
2023/08/17 05:14:21;;;;;;;17.63;5.43;;;17.10;99.90;;;;;;4825856;29;20130;-51
2023/08/17 05:16:48;;;;;;;14.90;5.32;;;17.20;99.90;;;;;;4825975;29;20050;-53
2023/08/17 05:19:15;;;;;;;19.15;5.43;;;17.20;99.90;;;;;;4840608;29;20082;-55
2023/08/17 05:21:41;;;;;;;22.10;5.40;;;17.20;99.90;;;;;;4840280;29;20050;-53
2023/08/17 05:24:08;;;;;;;18.17;5.07;;;17.20;99.90;;;;;;4840268;29;20057;-53
2023/08/17 05:26:35;;;;;;;19.35;5.03;;;17.20;99.90;;;;;;4838592;29;20495;-51
2023/08/17 05:29:02;;;;;;;15.13;4.93;;;17.20;99.90;;;;;;4825708;29;20081;-51
2023/08/17 05:31:29;;;;;;;20.98;5.43;;;17.30;99.90;;;;;;4825995;29;20043;-56
2023/08/17 05:33:56;;;;;;;13.02;5.00;;;17.30;99.90;;;;;;4840212;29;20058;-54
2023/08/17 05:36:24;;;;;;;16.95;5.15;;;17.30;99.90;;;;;;4839906;29;20149;-51
2023/08/17 05:38:51;;;;;;;19.25;4.97;;;17.30;99.90;;;;;;4840255;29;20099;-53
2023/08/17 05:41:18;;;;;;;16.42;5.00;;;17.40;99.90;;;;;;4839936;29;20058;-55
2023/08/17 05:43:44;;;;;;;17.35;4.65;;;17.40;99.90;;;;;;4839836;29;20103;-52
2023/08/17 05:46:11;;;;;;;13.43;4.30;;;17.40;99.90;;;;;;4839719;29;20105;-54
2023/08/17 05:48:39;;;;;;;17.27;4.72;;;17.40;99.90;;;;;;4839631;29;20058;-56
2023/08/17 05:51:06;;;;;;;17.73;4.95;;;17.40;99.90;;;;;;4825556;29;20052;-53
2023/08/17 05:53:32;;;;;;;17.92;5.13;;;17.50;99.90;;;;;;4826025;29;20046;-54
2023/08/17 05:55:59;;;;;;;18.23;4.82;;;17.50;99.90;;;;;;4825370;29;20042;-52
2023/08/17 05:58:26;;;;;;;14.15;4.75;;;17.50;99.90;;;;;;4825379;29;20063;-52
2023/08/17 06:00:53;;;;;;;15.88;5.05;;;17.50;99.90;;;;;;4839837;29;20050;-55
2023/08/17 06:03:20;;;;;;;16.75;4.70;;;17.50;99.90;;;;;;4825487;29;20087;-54
2023/08/17 06:05:47;;;;;;;15.13;4.57;;;17.60;99.90;;;;;;4825741;29;20535;-54
2023/08/17 06:08:13;;;;;;;13.65;3.97;;;17.60;99.90;;;;;;4825558;29;20057;-52
2023/08/17 06:10:40;;;;;;;18.05;4.43;;;17.60;99.90;;;;;;4825728;29;20047;-55
2023/08/17 06:13:07;;;;;;;16.38;4.93;;;17.70;99.90;;;;;;4824960;29;20052;-54
2023/08/17 06:15:34;;;;;;;14.75;4.22;;;17.60;99.90;;;;;;4824989;29;20046;-54
2023/08/17 06:18:00;;;;;;;14.02;4.30;;;17.70;99.90;;;;;;4825149;29;20061;-51
2023/08/17 06:20:27;;;;;;;15.20;4.10;;;17.70;99.90;;;;;;4825423;29;20038;-54
2023/08/17 06:22:54;;;;;;;13.05;3.90;;;17.80;99.90;;;;;;4825077;29;20134;-52
2023/08/17 06:25:21;;;;;;;17.17;3.97;;;17.80;99.90;;;;;;4838877;29;20069;-49
2023/08/17 06:27:48;;;;;;;12.60;4.00;;;17.80;99.90;;;;;;4824732;29;20505;-56
2023/08/17 06:30:14;;;;;;;15.18;4.47;;;17.90;99.90;;;;;;4824885;29;20042;-56
2023/08/17 06:32:41;;;;;;;13.27;4.80;;;18.00;99.90;;;;;;4824862;29;20130;-56
2023/08/17 06:35:08;;;;;;;12.82;4.18;;;17.90;99.90;;;;;;4825195;29;20065;-56
2023/08/17 06:37:35;;;;;;;18.02;4.40;;;18.00;99.90;;;;;;4838343;29;20043;-56
2023/08/17 06:40:02;;;;;;;15.75;4.30;;;18.00;99.90;;;;;;4824590;29;20053;-54
2023/08/17 06:42:29;;;;;;;15.35;4.65;;;18.00;99.90;;;;;;4824720;29;20478;-54
2023/08/17 06:44:56;;;;;;;17.27;4.50;;;18.10;99.90;;;;;;4838605;29;20042;-53
2023/08/17 06:47:22;;;;;;;12.93;4.10;;;18.10;99.90;;;;;;4824508;29;20087;-54
2023/08/17 06:49:50;;;;;;;16.17;4.00;;;18.20;99.90;;;;;;4824797;29;20137;-55
2023/08/17 06:52:16;;;;;;;12.45;4.05;;;18.20;99.90;;;;;;4824958;29;20386;-51
2023/08/17 06:54:43;;;;;;;16.08;4.25;;;18.30;99.90;;;;;;4838890;29;20042;-49
2023/08/17 06:57:10;;;;;;;18.80;4.72;;;18.30;99.90;;;;;;4824361;29;20047;-54
2023/08/17 06:59:37;;;;;;;18.05;6.45;;;18.40;99.90;;;;;;4824425;29;20058;-52
2023/08/17 07:02:04;;;;;;;17.23;4.30;;;18.50;99.90;;;;;;4824521;29;20038;-56
2023/08/17 07:04:31;;;;;;;14.02;4.57;;;18.60;99.90;;;;;;4824722;29;20085;-49
2023/08/17 07:06:58;;;;;;;15.68;4.60;;;18.70;99.90;;;;;;4824532;29;20406;-50
2023/08/17 07:09:25;;;;;;;15.13;4.10;;;18.70;99.90;;;;;;4824613;29;20053;-55
2023/08/17 07:11:51;;;;;;;16.60;4.78;;;18.70;99.90;;;;;;4838615;29;20051;-53
2023/08/17 07:14:18;;;;;;;11.43;4.18;;;18.80;99.90;;;;;;4824337;29;20390;-52
2023/08/17 07:16:48;;;;;;;13.10;3.92;;;18.90;99.90;;;;;;4824146;29;20058;-52
2023/08/17 07:19:15;;;;;;;17.30;4.57;;;18.90;99.90;;;;;;4824588;29;20448;-54
2023/08/17 07:21:42;;;;;;;14.15;3.90;;;19.00;99.90;;;;;;4824742;29;20486;-54
2023/08/17 07:24:08;;;;;;;14.40;4.22;;;19.10;99.90;;;;;;4824248;29;20042;-56
2023/08/17 07:26:35;;;;;;;13.50;3.47;;;19.10;99.90;;;;;;4824580;29;20216;-55
2023/08/17 07:29:02;;;;;;;14.38;3.90;;;19.10;99.90;;;;;;4824609;29;20463;-52
2023/08/17 07:31:29;;;;;;;13.35;3.83;;;19.10;99.90;;;;;;4824671;29;20489;-57
2023/08/17 07:33:56;;;;;;;15.57;3.75;;;19.10;99.90;;;;;;4824180;29;20047;-55
2023/08/17 07:36:23;;;;;;;14.20;3.22;;;19.20;99.90;;;;;;4824485;29;20061;-55
2023/08/17 07:38:49;;;;;;;14.63;4.05;;;19.20;99.90;;;;;;4824075;29;20038;-51
2023/08/17 07:41:16;;;;;;;14.30;4.22;;;19.30;99.90;;;;;;4824020;29;20047;-53
2023/08/17 07:43:43;;;;;;;17.55;3.72;;;19.40;99.90;;;;;;4824176;29;20042;-55
2023/08/17 07:46:10;;;;;;;10.65;3.15;;;19.50;99.90;;;;;;4824238;29;20078;-57
2023/08/17 07:48:37;;;;;;;15.60;3.78;;;19.50;99.90;;;;;;4823653;29;20039;-56
2023/08/17 07:51:04;;;;;;;12.55;3.70;;;19.60;99.90;;;;;;4827711;29;20046;-54
2023/08/17 07:53:30;;;;;;;13.60;3.60;;;19.70;99.90;;;;;;4827308;29;20051;-53
2023/08/17 07:55:57;;;;;;;12.52;3.35;;;19.80;99.90;;;;;;4827884;29;20475;-53
2023/08/17 07:58:24;;;;;;;10.30;3.15;;;19.80;99.90;;;;;;4826981;29;20129;-51
2023/08/17 08:00:51;;;;;;;10.25;2.80;;;19.90;99.90;;;;;;4832994;29;20148;-51
2023/08/17 08:03:17;;;;;;;11.27;2.95;;;20.00;99.90;;;;;;4839908;29;20129;-53
2023/08/17 08:05:44;;;;;;;10.48;3.28;;;20.00;99.90;;;;;;4835401;29;20033;-50
2023/08/17 08:08:11;;;;;;;11.18;2.35;;;20.20;99.90;;;;;;4836768;29;20079;-54
2023/08/17 08:10:38;;;;;;;9.38;3.00;;;20.30;99.90;;;;;;4840878;29;20045;-55
2023/08/17 08:13:05;;;;;;;10.20;2.78;;;20.30;99.90;;;;;;4841817;29;20046;-54
2023/08/17 08:15:31;;;;;;;12.70;3.00;;;20.40;99.90;;;;;;4835952;29;20042;-55
2023/08/17 08:17:58;;;;;;;8.45;2.58;;;20.50;99.90;;;;;;4838795;29;20060;-52
2023/08/17 08:20:25;;;;;;;12.18;3.75;;;20.50;99.90;;;;;;4826819;29;20076;-52
2023/08/17 08:22:52;;;;;;;10.95;2.65;;;20.60;99.90;;;;;;4826666;29;20418;-52
2023/08/17 08:25:18;;;;;;;9.02;2.72;;;20.80;99.90;;;;;;4826931;29;20054;-54
2023/08/17 08:27:45;;;;;;;12.52;2.88;;;20.90;99.90;;;;;;4826847;29;20122;-56
2023/08/17 08:30:12;;;;;;;12.85;2.50;;;20.90;99.90;;;;;;4841017;29;20406;-57
2023/08/17 08:32:39;;;;;;;11.45;3.10;;;20.90;99.90;;;;;;4826543;29;20057;-56
2023/08/17 08:35:06;;;;;;;13.65;3.30;;;20.90;99.90;;;;;;4826843;29;20495;-56
2023/08/17 08:37:32;;;;;;;11.38;2.60;;;20.90;99.90;;;;;;4826826;29;20121;-57
2023/08/17 08:39:59;;;;;;;10.65;2.70;;;21.00;99.90;;;;;;4826676;29;20099;-52
2023/08/17 08:42:26;;;;;;;9.85;3.08;;;21.10;99.90;;;;;;4840951;29;20088;-56
2023/08/17 08:44:53;;;;;;;14.75;3.08;;;21.10;99.90;;;;;;4826674;29;20107;-55
2023/08/17 08:47:20;;;;;;;13.10;3.10;;;21.00;99.90;;;;;;4826147;29;20045;-54
2023/08/17 08:49:46;;;;;;;9.50;2.72;;;21.00;99.90;;;;;;4826377;29;20046;-56
2023/08/17 08:52:13;;;;;;;11.70;3.22;;;21.00;99.90;;;;;;4827888;29;20471;-52
2023/08/17 08:54:41;;;;;;;11.25;2.97;;;21.00;99.90;;;;;;4833985;29;20048;-57
2023/08/17 08:57:07;;;;;;;16.20;2.78;;;21.00;99.90;;;;;;4852318;29;20041;-55
2023/08/17 08:59:34;;;;;;;10.63;3.30;;;21.00;99.90;;;;;;4854187;29;20382;-53
2023/08/17 09:02:01;;;;;;;14.35;3.20;;;21.10;99.90;;;;;;4844256;29;20534;-54
2023/08/17 09:04:28;;;;;;;13.02;2.78;;;21.20;99.90;;;;;;4844118;29;20046;-59
2023/08/17 09:06:55;;;;;;;16.88;3.33;;;21.20;99.90;;;;;;4858187;29;20048;-55
2023/08/17 09:09:21;;;;;;;15.52;3.10;;;21.10;99.90;;;;;;4844060;29;20050;-55
2023/08/17 09:11:48;;;;;;;11.30;2.65;;;21.00;99.90;;;;;;4843881;29;20066;-57
2023/08/17 09:14:15;;;;;;;12.95;2.58;;;21.10;99.90;;;;;;4843205;29;20048;-56
2023/08/17 09:16:42;;;;;;;11.68;2.70;;;21.30;99.90;;;;;;4843418;29;20054;-52
2023/08/17 09:19:09;;;;;;;12.95;2.67;;;21.50;99.90;;;;;;4857819;29;20077;-52
2023/08/17 09:21:36;;;;;;;13.02;3.15;;;21.60;99.90;;;;;;4844316;29;20069;-51
2023/08/17 09:24:03;;;;;;;18.52;2.72;;;21.70;99.90;;;;;;4843042;29;20142;-54
2023/08/17 09:26:29;;;;;;;10.70;2.50;;;21.70;99.90;;;;;;4843537;29;20046;-50
2023/08/17 09:28:58;;;;;;;11.38;2.47;;;21.70;99.90;;;;;;4843450;29;20573;-54
2023/08/17 09:31:25;;;;;;;10.90;2.53;;;21.60;99.90;;;;;;4843578;29;20540;-53
2023/08/17 09:33:52;;;;;;;12.40;2.45;;;21.50;99.90;;;;;;4843329;29;20054;-52
2023/08/17 09:36:18;;;;;;;7.60;2.42;;;21.50;99.90;;;;;;4843554;29;20048;-54
2023/08/17 09:38:45;;;;;;;10.27;2.50;;;21.50;99.90;;;;;;4843429;29;20048;-48
2023/08/17 09:41:13;;;;;;;13.25;2.53;;;21.60;99.90;;;;;;4843712;29;20046;-49
2023/08/17 09:43:40;;;;;;;9.50;2.58;;;21.50;99.90;;;;;;4842652;29;20133;-49
2023/08/17 09:46:07;;;;;;;12.63;2.50;;;21.60;99.90;;;;;;4843509;29;20042;-54
2023/08/17 09:48:34;;;;;;;9.73;2.17;;;21.70;99.90;;;;;;4843698;29;20204;-52
2023/08/17 09:51:02;;;;;;;10.80;2.53;;;21.80;99.90;;;;;;4842506;29;20042;-50
2023/08/17 09:53:29;;;;;;;8.32;2.28;;;21.90;99.90;;;;;;4842298;29;20065;-51
2023/08/17 09:55:56;;;;;;;13.63;2.35;;;22.10;99.90;;;;;;4842570;29;20422;-49
2023/08/17 09:58:23;;;;;;;8.52;2.28;;;22.20;99.90;;;;;;4841856;29;20122;-53
2023/08/17 10:00:49;;;;;;;9.02;2.53;;;22.20;99.90;;;;;;4842045;29;20379;-52
2023/08/17 10:03:17;;;;;;;12.00;2.20;;;22.20;99.90;;;;;;4842031;29;20042;-55
2023/08/17 10:05:44;;;;;;;10.88;2.25;;;22.10;99.90;;;;;;4842902;29;20073;-52
2023/08/17 10:08:11;;;;;;;7.00;2.10;;;22.10;99.90;;;;;;4843712;29;20042;-58
2023/08/17 10:10:38;;;;;;;8.65;2.10;;;22.10;99.90;;;;;;4857357;29;20052;-56
2023/08/17 10:13:06;;;;;;;8.30;2.13;;;21.90;99.90;;;;;;4842722;29;20055;-56
2023/08/17 10:15:33;;;;;;;10.73;2.08;;;22.10;99.90;;;;;;4843427;29;20054;-53
2023/08/17 10:17:59;;;;;;;11.15;1.85;;;22.20;99.90;;;;;;4843691;29;20042;-57
2023/08/17 10:20:26;;;;;;;10.60;2.17;;;22.30;99.90;;;;;;4843029;29;20041;-54
2023/08/17 10:22:53;;;;;;;6.68;1.90;;;22.40;99.90;;;;;;4842839;29;20042;-54
2023/08/17 10:25:20;;;;;;;7.53;2.05;;;22.50;99.90;;;;;;4843532;29;20045;-55
2023/08/17 10:27:46;;;;;;;8.50;2.00;;;22.60;99.90;;;;;;4843107;29;20530;-53
2023/08/17 10:30:13;;;;;;;8.95;2.00;;;22.70;99.90;;;;;;4843513;29;20512;-56
2023/08/17 10:32:44;;;;;;;7.45;1.90;;;22.80;99.90;;;;;;4843222;29;20098;-53
2023/08/17 10:35:12;;;;;;;8.63;1.85;;;22.80;99.90;;;;;;4842754;29;20150;-54
2023/08/17 10:37:38;;;;;;;9.00;1.98;;;22.90;99.90;;;;;;4842688;29;20328;-55
2023/08/17 10:40:06;;;;;;;7.65;1.70;;;22.90;99.90;;;;;;4842639;29;20056;-54
2023/08/17 10:42:32;;;;;;;7.28;1.85;;;22.80;99.90;;;;;;4856919;29;20132;-54
2023/08/17 10:45:01;;;;;;;10.80;2.00;;;22.70;99.90;;;;;;4842837;29;20042;-56
2023/08/17 10:47:28;;;;;;;7.45;1.70;;;22.60;99.90;;;;;;4842758;29;20077;-56
2023/08/17 10:50:01;;;;;;;12.00;2.15;;;22.50;99.90;;;;;;4843058;29;20080;-55
2023/08/17 10:52:28;;;;;;;6.18;1.80;;;22.50;99.90;;;;;;4842696;29;20050;-55
2023/08/17 10:54:56;;;;;;;11.95;2.00;;;22.50;99.90;;;;;;4842755;29;20041;-57
2023/08/17 10:57:23;;;;;;;8.38;2.20;;;22.60;99.90;;;;;;4842605;29;20050;-56
2023/08/17 10:59:49;;;;;;;6.97;1.83;;;22.60;99.90;;;;;;4842402;29;20484;-53
2023/08/17 11:02:16;;;;;;;8.68;2.35;;;22.80;99.90;;;;;;4842506;29;20098;-55
2023/08/17 11:04:43;;;;;;;7.32;1.70;;;22.90;99.90;;;;;;4842867;29;20427;-57
2023/08/17 11:07:10;;;;;;;9.55;2.35;;;22.90;99.90;;;;;;4842356;29;20046;-54
2023/08/17 11:09:37;;;;;;;5.57;1.67;;;22.80;99.90;;;;;;4842732;29;20505;-57
2023/08/17 11:12:10;;;;;;;9.27;1.90;;;22.80;99.90;;;;;;4856716;29;20050;-53
2023/08/17 11:14:36;;;;;;;7.90;2.00;;;22.60;99.90;;;;;;4842793;29;20049;-56
2023/08/17 11:17:03;;;;;;;4.88;1.70;;;22.60;99.90;;;;;;4842516;29;20150;-56
2023/08/17 11:19:32;;;;;;;7.63;1.95;;;22.60;99.90;;;;;;4842115;29;20042;-54
2023/08/17 11:21:58;;;;;;;14.98;3.53;;;22.70;99.90;;;;;;4842828;29;20505;-53
2023/08/17 11:24:25;;;;;;;7.95;2.50;;;22.90;99.80;;;;;;4842337;29;20037;-53
2023/08/17 11:26:55;;;;;;;8.77;1.70;;;23.10;99.80;;;;;;4842692;29;20056;-54
2023/08/17 11:29:23;;;;;;;6.70;1.70;;;23.20;99.80;;;;;;4842598;29;20046;-53
2023/08/17 11:31:50;;;;;;;7.47;1.50;;;23.30;99.80;;;;;;4842614;29;20125;-55
2023/08/17 11:34:17;;;;;;;9.00;1.65;;;23.30;99.50;;;;;;4842131;29;20052;-56
2023/08/17 11:36:44;;;;;;;8.90;1.88;;;23.30;99.00;;;;;;4842145;29;20050;-55
2023/08/17 11:39:12;;;;;;;7.10;1.77;;;23.40;98.90;;;;;;4842198;29;20053;-55
2023/08/17 11:41:40;;;;;;;5.68;1.77;;;23.40;99.30;;;;;;4842522;29;20077;-57
2023/08/17 11:44:07;;;;;;;9.35;1.98;;;23.40;99.10;;;;;;4856679;29;20045;-56
2023/08/17 11:46:34;;;;;;;8.02;1.98;;;23.30;99.20;;;;;;4842238;29;20046;-59
2023/08/17 11:49:01;;;;;;;10.90;1.98;;;23.30;99.10;;;;;;4842264;29;20072;-56
2023/08/17 11:51:29;;;;;;;8.57;1.55;;;23.30;98.90;;;;;;4842253;29;20167;-53
2023/08/17 11:53:56;;;;;;;7.40;2.00;;;23.20;98.90;;;;;;4842469;29;20072;-52
2023/08/17 11:56:23;;;;;;;7.18;1.70;;;23.20;98.70;;;;;;4842416;29;20042;-51
2023/08/17 11:58:50;;;;;;;7.18;1.50;;;23.20;98.90;;;;;;4841669;29;20058;-56
2023/08/17 12:01:17;;;;;;;5.95;1.50;;;23.10;99.10;;;;;;4841919;29;20046;-57
2023/08/17 12:03:45;;;;;;;7.03;1.58;;;23.10;98.70;;;;;;4842371;29;20041;-55
2023/08/17 12:06:15;;;;;;;7.93;2.05;;;23.00;99.00;;;;;;4841705;29;20130;-56
2023/08/17 12:08:42;;;;;;;9.85;1.65;;;23.00;99.20;;;;;;4842457;29;20069;-56
2023/08/17 12:11:12;;;;;;;11.13;1.80;;;23.10;98.70;;;;;;4855995;29;20498;-57
2023/08/17 12:13:39;;;;;;;9.02;1.65;;;23.30;98.40;;;;;;4841950;29;20046;-57
2023/08/17 12:16:06;;;;;;;6.78;1.60;;;23.30;98.70;;;;;;4841658;29;20140;-56
2023/08/17 12:18:33;;;;;;;9.27;1.50;;;23.10;98.70;;;;;;4842591;29;20050;-57
2023/08/17 12:21:00;;;;;;;5.40;1.52;;;22.90;98.70;;;;;;4841730;29;20050;-56
2023/08/17 12:23:27;;;;;;;6.43;1.70;;;22.80;99.00;;;;;;4842139;29;20042;-57
2023/08/17 12:25:54;;;;;;;7.18;1.77;;;22.80;99.10;;;;;;4855573;29;20041;-50
2023/08/17 12:28:22;;;;;;;7.57;1.70;;;22.60;99.20;;;;;;4841616;29;20516;-55
2023/08/17 12:30:48;;;;;;;8.90;1.60;;;22.60;99.20;;;;;;4842037;29;20050;-49
2023/08/17 12:33:15;;;;;;;8.63;1.50;;;22.80;98.70;;;;;;4841944;29;20070;-53
2023/08/17 12:35:43;;;;;;;6.00;1.63;;;22.90;98.80;;;;;;4843050;29;20049;-56